sensor_id;sensor_type;location;lat;lon;timestamp;pressure;altitude;pressure_sealevel;temperature;humidity
13732;BME280;6937;56.096;12.664;2023-03-22T00:00:25;101603.75;;;8.55;100.00
13732;BME280;6937;56.096;12.664;2023-03-22T00:02:52;101606.38;;;8.57;100.00
13732;BME280;6937;56.096;12.664;2023-03-22T00:05:18;101588.75;;;8.54;100.00
13732;BME280;6937;56.096;12.664;2023-03-22T00:07:43;101600.22;;;8.55;100.00
13732;BME280;6937;56.096;12.664;2023-03-22T00:10:09;101532.09;;;8.51;100.00
13732;BME280;6937;56.096;12.664;2023-03-22T00:12:34;101532.16;;;8.49;100.00
13732;BME280;6937;56.096;12.664;2023-03-22T00:15:00;101547.97;;;8.52;100.00
13732;BME280;6937;56.096;12.664;2023-03-22T00:17:25;101534.88;;;8.48;100.00
13732;BME280;6937;56.096;12.664;2023-03-22T00:19:51;101528.78;;;8.46;100.00
13732;BME280;6937;56.096;12.664;2023-03-22T00:22:18;101527.91;;;8.45;100.00
13732;BME280;6937;56.096;12.664;2023-03-22T00:24:44;101511.06;;;8.45;100.00
13732;BME280;6937;56.096;12.664;2023-03-22T00:27:10;101506.69;;;8.44;100.00
13732;BME280;6937;56.096;12.664;2023-03-22T00:29:35;101518.13;;;8.46;100.00
13732;BME280;6937;56.096;12.664;2023-03-22T00:32:00;101497.06;;;8.41;100.00
13732;BME280;6937;56.096;12.664;2023-03-22T00:34:30;101495.19;;;8.43;100.00
13732;BME280;6937;56.096;12.664;2023-03-22T00:36:56;101498.84;;;8.41;100.00
13732;BME280;6937;56.096;12.664;2023-03-22T00:39:21;101515.69;;;8.41;100.00
13732;BME280;6937;56.096;12.664;2023-03-22T00:41:47;101497.00;;;8.43;100.00
13732;BME280;6937;56.096;12.664;2023-03-22T00:44:12;101497.91;;;8.42;100.00
13732;BME280;6937;56.096;12.664;2023-03-22T00:46:37;101508.75;;;8.39;100.00
13732;BME280;6937;56.096;12.664;2023-03-22T00:49:03;101536.25;;;8.39;100.00
13732;BME280;6937;56.096;12.664;2023-03-22T00:51:28;101547.75;;;8.40;100.00
13732;BME280;6937;56.096;12.664;2023-03-22T00:53:54;101544.13;;;8.41;100.00
13732;BME280;6937;56.096;12.664;2023-03-22T00:56:19;101544.94;;;8.43;100.00
13732;BME280;6937;56.096;12.664;2023-03-22T00:58:47;101566.94;;;8.46;100.00
13732;BME280;6937;56.096;12.664;2023-03-22T01:01:13;101565.00;;;8.50;100.00
13732;BME280;6937;56.096;12.664;2023-03-22T01:03:39;101551.50;;;8.53;100.00
13732;BME280;6937;56.096;12.664;2023-03-22T01:06:05;101563.91;;;8.54;100.00
13732;BME280;6937;56.096;12.664;2023-03-22T01:08:30;101578.84;;;8.56;100.00
13732;BME280;6937;56.096;12.664;2023-03-22T01:10:57;101391.59;;;8.54;100.00
13732;BME280;6937;56.096;12.664;2023-03-22T01:13:23;101318.69;;;8.55;100.00
13732;BME280;6937;56.096;12.664;2023-03-22T01:15:49;101321.53;;;8.52;100.00
13732;BME280;6937;56.096;12.664;2023-03-22T01:18:15;101309.44;;;8.47;100.00
13732;BME280;6937;56.096;12.664;2023-03-22T01:20:40;101310.53;;;8.43;100.00
13732;BME280;6937;56.096;12.664;2023-03-22T01:23:06;101298.31;;;8.39;100.00
13732;BME280;6937;56.096;12.664;2023-03-22T01:25:31;101292.19;;;8.37;100.00
13732;BME280;6937;56.096;12.664;2023-03-22T01:27:56;101286.00;;;8.36;100.00
13732;BME280;6937;56.096;12.664;2023-03-22T01:30:22;101269.09;;;8.37;100.00
13732;BME280;6937;56.096;12.664;2023-03-22T01:32:47;101264.88;;;8.33;100.00
13732;BME280;6937;56.096;12.664;2023-03-22T01:35:13;101281.91;;;8.31;100.00
13732;BME280;6937;56.096;12.664;2023-03-22T01:37:38;101276.41;;;8.34;100.00
13732;BME280;6937;56.096;12.664;2023-03-22T01:40:05;101273.91;;;8.31;100.00
13732;BME280;6937;56.096;12.664;2023-03-22T01:42:31;101286.97;;;8.35;100.00
13732;BME280;6937;56.096;12.664;2023-03-22T01:47:47;101276.88;;;8.24;100.00
13732;BME280;6937;56.096;12.664;2023-03-22T01:50:16;101262.88;;;8.21;100.00
13732;BME280;6937;56.096;12.664;2023-03-22T01:52:43;101268.28;;;8.19;100.00
13732;BME280;6937;56.096;12.664;2023-03-22T01:55:09;101270.06;;;8.19;100.00
13732;BME280;6937;56.096;12.664;2023-03-22T01:57:37;101259.50;;;8.17;100.00
13732;BME280;6937;56.096;12.664;2023-03-22T02:00:04;101254.09;;;8.19;100.00
13732;BME280;6937;56.096;12.664;2023-03-22T02:02:43;101258.31;;;8.23;100.00
13732;BME280;6937;56.096;12.664;2023-03-22T02:05:09;101272.31;;;8.26;100.00
13732;BME280;6937;56.096;12.664;2023-03-22T02:07:37;101273.97;;;8.29;100.00
13732;BME280;6937;56.096;12.664;2023-03-22T02:10:14;101268.72;;;8.27;100.00
13732;BME280;6937;56.096;12.664;2023-03-22T02:23:18;101280.88;;;8.33;100.00
13732;BME280;6937;56.096;12.664;2023-03-22T02:37:25;101296.84;;;8.33;100.00
13732;BME280;6937;56.096;12.664;2023-03-22T02:40:15;101288.00;;;8.33;100.00
13732;BME280;6937;56.096;12.664;2023-03-22T02:43:00;101301.22;;;8.34;100.00
13732;BME280;6937;56.096;12.664;2023-03-22T02:45:33;101315.47;;;8.33;100.00
13732;BME280;6937;56.096;12.664;2023-03-22T02:48:07;101295.03;;;8.34;100.00
13732;BME280;6937;56.096;12.664;2023-03-22T02:50:52;101312.91;;;8.32;100.00
13732;BME280;6937;56.096;12.664;2023-03-22T02:53:35;101281.91;;;8.31;100.00
13732;BME280;6937;56.096;12.664;2023-03-22T02:56:10;101276.09;;;8.22;100.00
13732;BME280;6937;56.096;12.664;2023-03-22T02:58:40;101267.41;;;8.19;100.00
13732;BME280;6937;56.096;12.664;2023-03-22T03:01:15;101246.81;;;8.22;100.00
13732;BME280;6937;56.096;12.664;2023-03-22T03:03:46;101271.69;;;8.21;100.00
13732;BME280;6937;56.096;12.664;2023-03-22T03:06:17;101258.66;;;8.17;100.00
13732;BME280;6937;56.096;12.664;2023-03-22T03:08:45;101250.06;;;8.12;100.00
13732;BME280;6937;56.096;12.664;2023-03-22T03:11:12;101251.16;;;8.08;100.00
13732;BME280;6937;56.096;12.664;2023-03-22T03:13:37;101268.75;;;8.10;100.00
13732;BME280;6937;56.096;12.664;2023-03-22T03:16:03;101259.16;;;8.08;100.00
13732;BME280;6937;56.096;12.664;2023-03-22T03:18:42;101242.66;;;8.01;100.00
13732;BME280;6937;56.096;12.664;2023-03-22T03:26:53;101228.13;;;8.07;100.00
13732;BME280;6937;56.096;12.664;2023-03-22T03:29:21;101238.63;;;8.10;100.00
13732;BME280;6937;56.096;12.664;2023-03-22T03:31:54;101234.94;;;8.12;100.00
13732;BME280;6937;56.096;12.664;2023-03-22T03:34:26;101254.34;;;8.14;100.00
13732;BME280;6937;56.096;12.664;2023-03-22T03:37:00;101261.56;;;8.12;100.00
13732;BME280;6937;56.096;12.664;2023-03-22T03:39:31;101234.84;;;8.14;100.00
13732;BME280;6937;56.096;12.664;2023-03-22T03:41:59;101252.53;;;8.15;100.00
13732;BME280;6937;56.096;12.664;2023-03-22T03:44:26;101258.56;;;8.18;100.00
13732;BME280;6937;56.096;12.664;2023-03-22T03:46:52;101235.53;;;8.17;100.00
13732;BME280;6937;56.096;12.664;2023-03-22T03:49:20;101255.84;;;8.20;100.00
13732;BME280;6937;56.096;12.664;2023-03-22T03:51:54;101255.66;;;8.23;100.00
13732;BME280;6937;56.096;12.664;2023-03-22T03:54:21;101250.94;;;8.28;100.00
13732;BME280;6937;56.096;12.664;2023-03-22T03:56:47;101263.47;;;8.26;100.00
13732;BME280;6937;56.096;12.664;2023-03-22T03:59:15;101262.59;;;8.25;100.00
13732;BME280;6937;56.096;12.664;2023-03-22T04:01:41;101260.13;;;8.22;100.00
13732;BME280;6937;56.096;12.664;2023-03-22T04:04:35;101250.56;;;8.18;100.00
13732;BME280;6937;56.096;12.664;2023-03-22T04:07:02;101222.78;;;8.24;100.00
13732;BME280;6937;56.096;12.664;2023-03-22T04:09:37;101208.34;;;8.28;100.00
13732;BME280;6937;56.096;12.664;2023-03-22T04:12:04;101215.47;;;8.27;100.00
13732;BME280;6937;56.096;12.664;2023-03-22T04:14:30;101206.47;;;8.30;100.00
13732;BME280;6937;56.096;12.664;2023-03-22T04:16:55;101193.09;;;8.32;100.00
13732;BME280;6937;56.096;12.664;2023-03-22T04:19:21;101205.44;;;8.33;100.00
13732;BME280;6937;56.096;12.664;2023-03-22T04:21:47;101178.03;;;8.31;100.00
13732;BME280;6937;56.096;12.664;2023-03-22T04:24:13;101167.53;;;8.27;100.00
13732;BME280;6937;56.096;12.664;2023-03-22T04:26:38;101150.00;;;8.23;100.00
13732;BME280;6937;56.096;12.664;2023-03-22T04:29:04;101149.16;;;8.23;100.00
13732;BME280;6937;56.096;12.664;2023-03-22T04:31:31;101143.75;;;8.24;100.00
13732;BME280;6937;56.096;12.664;2023-03-22T04:33:57;101146.94;;;8.31;100.00
13732;BME280;6937;56.096;12.664;2023-03-22T04:36:31;101137.84;;;8.35;100.00
13732;BME280;6937;56.096;12.664;2023-03-22T04:39:05;101118.53;;;8.32;100.00
13732;BME280;6937;56.096;12.664;2023-03-22T04:41:31;101123.06;;;8.30;100.00
13732;BME280;6937;56.096;12.664;2023-03-22T04:43:57;101131.66;;;8.35;100.00
13732;BME280;6937;56.096;12.664;2023-03-22T04:46:32;101117.41;;;8.36;100.00
13732;BME280;6937;56.096;12.664;2023-03-22T04:48:58;101143.00;;;8.38;100.00
13732;BME280;6937;56.096;12.664;2023-03-22T04:51:24;101128.06;;;8.36;100.00
13732;BME280;6937;56.096;12.664;2023-03-22T04:53:50;101131.53;;;8.36;100.00
13732;BME280;6937;56.096;12.664;2023-03-22T04:56:16;101123.06;;;8.30;100.00
13732;BME280;6937;56.096;12.664;2023-03-22T04:58:42;101116.16;;;8.25;100.00
13732;BME280;6937;56.096;12.664;2023-03-22T05:01:09;101133.94;;;8.25;100.00
13732;BME280;6937;56.096;12.664;2023-03-22T05:03:34;101122.59;;;8.21;100.00
13732;BME280;6937;56.096;12.664;2023-03-22T05:06:02;101099.69;;;8.19;100.00
13732;BME280;6937;56.096;12.664;2023-03-22T05:08:29;101094.63;;;8.14;100.00
13732;BME280;6937;56.096;12.664;2023-03-22T05:10:56;101092.63;;;8.18;100.00
13732;BME280;6937;56.096;12.664;2023-03-22T05:13:25;101095.97;;;8.21;100.00
13732;BME280;6937;56.096;12.664;2023-03-22T05:15:51;101109.97;;;8.25;100.00
13732;BME280;6937;56.096;12.664;2023-03-22T05:18:20;101104.34;;;8.31;100.00
13732;BME280;6937;56.096;12.664;2023-03-22T05:20:49;101107.88;;;8.32;100.00
13732;BME280;6937;56.096;12.664;2023-03-22T05:23:15;101117.22;;;8.39;100.00
13732;BME280;6937;56.096;12.664;2023-03-22T05:25:44;101119.97;;;8.37;100.00
13732;BME280;6937;56.096;12.664;2023-03-22T05:28:11;101130.78;;;8.34;100.00
13732;BME280;6937;56.096;12.664;2023-03-22T05:30:39;101120.13;;;8.34;100.00
13732;BME280;6937;56.096;12.664;2023-03-22T05:33:04;101129.94;;;8.34;100.00
13732;BME280;6937;56.096;12.664;2023-03-22T05:35:32;101131.53;;;8.36;100.00
13732;BME280;6937;56.096;12.664;2023-03-22T05:37:58;101144.88;;;8.36;100.00
13732;BME280;6937;56.096;12.664;2023-03-22T05:40:24;101140.75;;;8.31;100.00
13732;BME280;6937;56.096;12.664;2023-03-22T05:42:50;101118.06;;;8.23;100.00
13732;BME280;6937;56.096;12.664;2023-03-22T05:45:16;101109.22;;;8.23;100.00
13732;BME280;6937;56.096;12.664;2023-03-22T05:47:42;101098.56;;;8.23;100.00
13732;BME280;6937;56.096;12.664;2023-03-22T05:50:09;101092.97;;;8.27;100.00
13732;BME280;6937;56.096;12.664;2023-03-22T05:52:35;101112.06;;;8.36;100.00
13732;BME280;6937;56.096;12.664;2023-03-22T05:55:01;101140.16;;;8.41;100.00
13732;BME280;6937;56.096;12.664;2023-03-22T05:57:26;101148.81;;;8.45;100.00
13732;BME280;6937;56.096;12.664;2023-03-22T05:59:54;101158.44;;;8.47;100.00
13732;BME280;6937;56.096;12.664;2023-03-22T06:02:19;101165.47;;;8.48;100.00
13732;BME280;6937;56.096;12.664;2023-03-22T06:04:45;101165.97;;;8.55;100.00
13732;BME280;6937;56.096;12.664;2023-03-22T06:07:11;101157.03;;;8.56;100.00
13732;BME280;6937;56.096;12.664;2023-03-22T06:09:37;101157.97;;;8.55;100.00
13732;BME280;6937;56.096;12.664;2023-03-22T06:12:03;101169.44;;;8.57;100.00
13732;BME280;6937;56.096;12.664;2023-03-22T06:14:29;101160.31;;;8.61;100.00
13732;BME280;6937;56.096;12.664;2023-03-22T06:16:55;101155.94;;;8.60;100.00
13732;BME280;6937;56.096;12.664;2023-03-22T06:19:20;101153.25;;;8.60;100.00
13732;BME280;6937;56.096;12.664;2023-03-22T06:21:45;101142.41;;;8.63;100.00
13732;BME280;6937;56.096;12.664;2023-03-22T06:24:11;101131.94;;;8.60;100.00
13732;BME280;6937;56.096;12.664;2023-03-22T06:26:36;101116.16;;;8.57;100.00
13732;BME280;6937;56.096;12.664;2023-03-22T06:29:01;101093.28;;;8.53;100.00
13732;BME280;6937;56.096;12.664;2023-03-22T06:31:28;101058.38;;;8.43;100.00
13732;BME280;6937;56.096;12.664;2023-03-22T06:33:54;101038.47;;;8.49;100.00
13732;BME280;6937;56.096;12.664;2023-03-22T06:36:19;101019.09;;;8.47;100.00
13732;BME280;6937;56.096;12.664;2023-03-22T06:38:45;100966.47;;;8.50;100.00
13732;BME280;6937;56.096;12.664;2023-03-22T06:41:11;100924.53;;;8.54;100.00
13732;BME280;6937;56.096;12.664;2023-03-22T06:43:36;100882.94;;;8.51;100.00
13732;BME280;6937;56.096;12.664;2023-03-22T06:46:02;100275.28;;;8.45;100.00
13732;BME280;6937;56.096;12.664;2023-03-22T06:48:27;100260.06;;;8.47;100.00
13732;BME280;6937;56.096;12.664;2023-03-22T06:50:52;100263.44;;;8.49;100.00
13732;BME280;6937;56.096;12.664;2023-03-22T06:53:18;100254.38;;;8.51;100.00
13732;BME280;6937;56.096;12.664;2023-03-22T06:55:43;100263.75;;;8.57;100.00
13732;BME280;6937;56.096;12.664;2023-03-22T06:58:09;100253.63;;;8.62;100.00
13732;BME280;6937;56.096;12.664;2023-03-22T07:00:34;100252.66;;;8.63;100.00
13732;BME280;6937;56.096;12.664;2023-03-22T07:03:00;100250.63;;;8.66;100.00
13732;BME280;6937;56.096;12.664;2023-03-22T07:05:25;100230.91;;;8.69;100.00
13732;BME280;6937;56.096;12.664;2023-03-22T07:07:51;100240.38;;;8.73;100.00
13732;BME280;6937;56.096;12.664;2023-03-22T07:10:16;100225.97;;;8.76;100.00
13732;BME280;6937;56.096;12.664;2023-03-22T07:12:42;100217.03;;;8.77;100.00
13732;BME280;6937;56.096;12.664;2023-03-22T07:15:07;100205.28;;;8.79;100.00
13732;BME280;6937;56.096;12.664;2023-03-22T07:17:33;100196.44;;;8.79;100.00
13732;BME280;6937;56.096;12.664;2023-03-22T07:19:58;100195.34;;;8.81;100.00
13732;BME280;6937;56.096;12.664;2023-03-22T07:22:23;100186.16;;;8.85;100.00
13732;BME280;6937;56.096;12.664;2023-03-22T07:24:50;100163.91;;;8.86;100.00
13732;BME280;6937;56.096;12.664;2023-03-22T07:27:17;100155.91;;;8.86;100.00
13732;BME280;6937;56.096;12.664;2023-03-22T07:29:42;100149.00;;;8.84;100.00
13732;BME280;6937;56.096;12.664;2023-03-22T07:32:08;100134.06;;;8.81;100.00
13732;BME280;6937;56.096;12.664;2023-03-22T07:34:34;100130.34;;;8.84;100.00
13732;BME280;6937;56.096;12.664;2023-03-22T07:36:59;100116.91;;;8.85;100.00
13732;BME280;6937;56.096;12.664;2023-03-22T07:39:27;100120.94;;;8.91;100.00
13732;BME280;6937;56.096;12.664;2023-03-22T07:41:54;100109.50;;;8.89;100.00
13732;BME280;6937;56.096;12.664;2023-03-22T07:44:19;100101.53;;;8.89;100.00
13732;BME280;6937;56.096;12.664;2023-03-22T07:46:45;100099.94;;;8.86;100.00
13732;BME280;6937;56.096;12.664;2023-03-22T07:49:11;100083.25;;;8.84;100.00
13732;BME280;6937;56.096;12.664;2023-03-22T07:51:36;100066.25;;;8.85;100.00
13732;BME280;6937;56.096;12.664;2023-03-22T07:54:02;100051.38;;;8.83;100.00
13732;BME280;6937;56.096;12.664;2023-03-22T07:56:27;100031.75;;;8.84;100.00
13732;BME280;6937;56.096;12.664;2023-03-22T07:58:52;100006.19;;;8.81;100.00
13732;BME280;6937;56.096;12.664;2023-03-22T08:01:18;99998.09;;;8.83;100.00
13732;BME280;6937;56.096;12.664;2023-03-22T08:03:43;99984.66;;;8.84;100.00
13732;BME280;6937;56.096;12.664;2023-03-22T08:06:09;99961.75;;;8.82;100.00
13732;BME280;6937;56.096;12.664;2023-03-22T08:08:37;99952.78;;;8.83;100.00
13732;BME280;6937;56.096;12.664;2023-03-22T08:11:04;99933.53;;;8.90;100.00
13732;BME280;6937;56.096;12.664;2023-03-22T08:13:29;99938.38;;;8.96;100.00
13732;BME280;6937;56.096;12.664;2023-03-22T08:15:55;99931.25;;;8.97;100.00
13732;BME280;6937;56.096;12.664;2023-03-22T08:18:20;99920.31;;;9.00;100.00
13732;BME280;6937;56.096;12.664;2023-03-22T08:20:46;99900.97;;;8.98;100.00
13732;BME280;6937;56.096;12.664;2023-03-22T08:23:11;99888.97;;;9.03;100.00
13732;BME280;6937;56.096;12.664;2023-03-22T08:25:41;99869.22;;;9.06;100.00
13732;BME280;6937;56.096;12.664;2023-03-22T08:28:08;99863.03;;;9.05;100.00
13732;BME280;6937;56.096;12.664;2023-03-22T08:30:34;99854.19;;;9.05;100.00
13732;BME280;6937;56.096;12.664;2023-03-22T08:32:59;99836.13;;;9.08;100.00
13732;BME280;6937;56.096;12.664;2023-03-22T08:35:25;99838.31;;;9.14;100.00
13732;BME280;6937;56.096;12.664;2023-03-22T08:37:54;99812.50;;;9.15;100.00
13732;BME280;6937;56.096;12.664;2023-03-22T08:40:20;99801.22;;;9.11;100.00
13732;BME280;6937;56.096;12.664;2023-03-22T08:42:48;99773.75;;;9.11;100.00
13732;BME280;6937;56.096;12.664;2023-03-22T08:45:13;99759.59;;;9.10;100.00
13732;BME280;6937;56.096;12.664;2023-03-22T08:47:39;99744.28;;;9.12;100.00
13732;BME280;6937;56.096;12.664;2023-03-22T08:50:06;99728.88;;;9.16;100.00
13732;BME280;6937;56.096;12.664;2023-03-22T08:52:32;99705.03;;;9.14;100.00
13732;BME280;6937;56.096;12.664;2023-03-22T08:54:57;99701.38;;;9.15;100.00
13732;BME280;6937;56.096;12.664;2023-03-22T08:57:23;99687.34;;;9.13;100.00
13732;BME280;6937;56.096;12.664;2023-03-22T08:59:52;99678.41;;;9.14;100.00
13732;BME280;6937;56.096;12.664;2023-03-22T09:02:17;99683.72;;;9.14;100.00
13732;BME280;6937;56.096;12.664;2023-03-22T09:04:43;99656.22;;;9.14;100.00
13732;BME280;6937;56.096;12.664;2023-03-22T09:07:08;99638.34;;;9.26;100.00
13732;BME280;6937;56.096;12.664;2023-03-22T09:09:33;99620.91;;;9.21;100.00
13732;BME280;6937;56.096;12.664;2023-03-22T09:11:59;99605.44;;;9.15;100.00
13732;BME280;6937;56.096;12.664;2023-03-22T09:14:25;99588.84;;;9.12;100.00
13732;BME280;6937;56.096;12.664;2023-03-22T09:16:50;99568.66;;;9.09;100.00
13732;BME280;6937;56.096;12.664;2023-03-22T09:19:15;99551.94;;;9.07;100.00
13732;BME280;6937;56.096;12.664;2023-03-22T09:21:41;99557.13;;;9.09;100.00
13732;BME280;6937;56.096;12.664;2023-03-22T09:24:07;99548.03;;;9.11;100.00
13732;BME280;6937;56.096;12.664;2023-03-22T09:26:32;99555.63;;;9.16;100.00
13732;BME280;6937;56.096;12.664;2023-03-22T09:28:58;99527.44;;;9.13;100.00
13732;BME280;6937;56.096;12.664;2023-03-22T09:31:23;99537.25;;;9.13;100.00
13732;BME280;6937;56.096;12.664;2023-03-22T09:33:49;99526.00;;;9.09;100.00
13732;BME280;6937;56.096;12.664;2023-03-22T09:36:14;99516.19;;;9.10;100.00
13732;BME280;6937;56.096;12.664;2023-03-22T09:38:40;99498.38;;;9.10;100.00
13732;BME280;6937;56.096;12.664;2023-03-22T09:43:50;99489.56;;;9.19;100.00
13732;BME280;6937;56.096;12.664;2023-03-22T09:46:29;99477.66;;;9.23;100.00
13732;BME280;6937;56.096;12.664;2023-03-22T09:48:57;99468.72;;;9.25;100.00
13732;BME280;6937;56.096;12.664;2023-03-22T09:51:32;99462.97;;;9.29;100.00
13732;BME280;6937;56.096;12.664;2023-03-22T09:54:01;99468.03;;;9.32;100.00
13732;BME280;6937;56.096;12.664;2023-03-22T09:56:29;99463.28;;;9.36;100.00
13732;BME280;6937;56.096;12.664;2023-03-22T10:01:29;99483.66;;;9.46;100.00
13732;BME280;6937;56.096;12.664;2023-03-22T10:04:28;99479.44;;;9.44;100.00
13732;BME280;6937;56.096;12.664;2023-03-22T10:09:57;99471.72;;;9.41;100.00
13732;BME280;6937;56.096;12.664;2023-03-22T10:12:27;99474.13;;;9.44;100.00
13732;BME280;6937;56.096;12.664;2023-03-22T10:15:20;99474.13;;;9.44;100.00
13732;BME280;6937;56.096;12.664;2023-03-22T10:17:53;99467.38;;;9.40;100.00
13732;BME280;6937;56.096;12.664;2023-03-22T10:22:56;99466.31;;;9.61;100.00
13732;BME280;6937;56.096;12.664;2023-03-22T10:25:32;99465.72;;;9.58;100.00
13732;BME280;6937;56.096;12.664;2023-03-22T10:27:57;99501.78;;;9.52;100.00
13732;BME280;6937;56.096;12.664;2023-03-22T10:30:29;99643.78;;;9.45;100.00
13732;BME280;6937;56.096;12.664;2023-03-22T10:33:13;99663.44;;;9.44;100.00
13732;BME280;6937;56.096;12.664;2023-03-22T10:35:41;99670.59;;;9.43;100.00
13732;BME280;6937;56.096;12.664;2023-03-22T10:38:20;99657.66;;;9.39;100.00
13732;BME280;6937;56.096;12.664;2023-03-22T10:40:48;99655.81;;;9.39;100.00
13732;BME280;6937;56.096;12.664;2023-03-22T10:43:21;99632.53;;;9.41;100.00
13732;BME280;6937;56.096;12.664;2023-03-22T10:45:49;99646.13;;;9.38;100.00
13732;BME280;6937;56.096;12.664;2023-03-22T10:48:27;99637.03;;;9.41;100.00
13732;BME280;6937;56.096;12.664;2023-03-22T10:50:53;99634.50;;;9.39;100.00
13732;BME280;6937;56.096;12.664;2023-03-22T10:53:39;99626.38;;;9.41;100.00
13732;BME280;6937;56.096;12.664;2023-03-22T10:56:13;99607.94;;;9.38;100.00
13732;BME280;6937;56.096;12.664;2023-03-22T10:58:40;99614.88;;;9.40;100.00
13732;BME280;6937;56.096;12.664;2023-03-22T11:01:14;99612.50;;;9.47;100.00
13732;BME280;6937;56.096;12.664;2023-03-22T11:03:44;99623.47;;;9.53;100.00
13732;BME280;6937;56.096;12.664;2023-03-22T11:06:24;99609.31;;;9.53;100.00
13732;BME280;6937;56.096;12.664;2023-03-22T11:08:57;99608.34;;;9.54;100.00
13732;BME280;6937;56.096;12.664;2023-03-22T11:11:25;99599.88;;;9.49;100.00
13732;BME280;6937;56.096;12.664;2023-03-22T11:14:05;99594.81;;;9.46;100.00
13732;BME280;6937;56.096;12.664;2023-03-22T11:16:31;99592.72;;;9.49;100.00
13732;BME280;6937;56.096;12.664;2023-03-22T11:19:05;99586.53;;;9.49;100.00
13732;BME280;6937;56.096;12.664;2023-03-22T11:21:32;99583.63;;;9.52;100.00
13732;BME280;6937;56.096;12.664;2023-03-22T11:24:03;99579.28;;;9.60;100.00
13732;BME280;6937;56.096;12.664;2023-03-22T11:26:32;99572.59;;;9.66;100.00
13732;BME280;6937;56.096;12.664;2023-03-22T11:29:12;99559.09;;;9.67;100.00
13732;BME280;6937;56.096;12.664;2023-03-22T11:31:50;99556.31;;;9.69;100.00
13732;BME280;6937;56.096;12.664;2023-03-22T11:34:18;99541.16;;;9.69;100.00
13732;BME280;6937;56.096;12.664;2023-03-22T11:36:44;99550.59;;;9.74;100.00
13732;BME280;6937;56.096;12.664;2023-03-22T11:39:11;99545.19;;;9.64;100.00
13732;BME280;6937;56.096;12.664;2023-03-22T11:41:38;99539.19;;;9.71;100.00
13732;BME280;6937;56.096;12.664;2023-03-22T11:44:07;99527.94;;;9.68;100.00
13732;BME280;6937;56.096;12.664;2023-03-22T11:46:35;99530.88;;;9.65;100.00
13732;BME280;6937;56.096;12.664;2023-03-22T11:49:05;99525.53;;;9.55;100.00
13732;BME280;6937;56.096;12.664;2023-03-22T11:51:33;99504.03;;;9.47;100.00
13732;BME280;6937;56.096;12.664;2023-03-22T11:54:19;99494.44;;;9.45;100.00
13732;BME280;6937;56.096;12.664;2023-03-22T11:56:50;99519.28;;;9.45;100.00
13732;BME280;6937;56.096;12.664;2023-03-22T11:59:25;99530.97;;;9.44;100.00
13732;BME280;6937;56.096;12.664;2023-03-22T12:01:57;99502.88;;;9.40;100.00
13732;BME280;6937;56.096;12.664;2023-03-22T12:04:28;99499.75;;;9.35;100.00
13732;BME280;6937;56.096;12.664;2023-03-22T12:06:58;99487.41;;;9.34;100.00
13732;BME280;6937;56.096;12.664;2023-03-22T12:09:25;99495.84;;;9.39;100.00
13732;BME280;6937;56.096;12.664;2023-03-22T12:11:55;99485.06;;;9.41;100.00
13732;BME280;6937;56.096;12.664;2023-03-22T12:14:28;99478.31;;;9.37;100.00
13732;BME280;6937;56.096;12.664;2023-03-22T12:17:46;99489.09;;;9.35;100.00
13732;BME280;6937;56.096;12.664;2023-03-22T12:20:11;99487.28;;;9.36;100.00
13732;BME280;6937;56.096;12.664;2023-03-22T12:22:42;99478.13;;;9.29;100.00
13732;BME280;6937;56.096;12.664;2023-03-22T12:25:14;99483.84;;;9.24;100.00
13732;BME280;6937;56.096;12.664;2023-03-22T12:27:43;99487.38;;;9.25;100.00
13732;BME280;6937;56.096;12.664;2023-03-22T12:30:22;99479.66;;;9.21;100.00
13732;BME280;6937;56.096;12.664;2023-03-22T12:33:01;99479.66;;;9.21;100.00
13732;BME280;6937;56.096;12.664;2023-03-22T12:35:30;99477.38;;;9.17;100.00
13732;BME280;6937;56.096;12.664;2023-03-22T12:38:00;99475.25;;;9.11;100.00
13732;BME280;6937;56.096;12.664;2023-03-22T12:40:33;99476.63;;;9.05;100.00
13732;BME280;6937;56.096;12.664;2023-03-22T12:45:38;99477.97;;;9.00;100.00
13732;BME280;6937;56.096;12.664;2023-03-22T12:48:11;99483.31;;;9.00;100.00
13732;BME280;6937;56.096;12.664;2023-03-22T12:50:46;99479.41;;;9.04;100.00
13732;BME280;6937;56.096;12.664;2023-03-22T12:53:14;99486.16;;;9.08;100.00
13732;BME280;6937;56.096;12.664;2023-03-22T12:55:42;99492.88;;;9.02;100.00
13732;BME280;6937;56.096;12.664;2023-03-22T12:58:09;99486.13;;;8.98;100.00
13732;BME280;6937;56.096;12.664;2023-03-22T13:00:41;99479.63;;;8.91;100.00
13732;BME280;6937;56.096;12.664;2023-03-22T13:05:44;99508.84;;;8.82;100.00
13732;BME280;6937;56.096;12.664;2023-03-22T13:08:10;99510.63;;;8.71;100.00
13732;BME280;6937;56.096;12.664;2023-03-22T13:21:17;99522.66;;;8.34;100.00
13732;BME280;6937;56.096;12.664;2023-03-22T13:23:55;99516.50;;;8.34;100.00
13732;BME280;6937;56.096;12.664;2023-03-22T13:26:30;99516.38;;;8.35;100.00
13732;BME280;6937;56.096;12.664;2023-03-22T13:28:58;99523.25;;;8.38;100.00
13732;BME280;6937;56.096;12.664;2023-03-22T13:32:27;99532.88;;;8.50;100.00
13732;BME280;6937;56.096;12.664;2023-03-22T13:34:43;99531.78;;;8.52;100.00
13732;BME280;6937;56.096;12.664;2023-03-22T13:39:56;99534.28;;;8.65;100.00
13732;BME280;6937;56.096;12.664;2023-03-22T13:42:33;99543.06;;;8.77;100.00
13732;BME280;6937;56.096;12.664;2023-03-22T13:45:00;99548.44;;;8.86;100.00
13732;BME280;6937;56.096;12.664;2023-03-22T13:47:36;99560.84;;;8.97;100.00
13732;BME280;6937;56.096;12.664;2023-03-22T13:52:50;99552.59;;;9.00;100.00
13732;BME280;6937;56.096;12.664;2023-03-22T13:55:37;99541.50;;;8.95;100.00
13732;BME280;6937;56.096;12.664;2023-03-22T13:58:09;99531.34;;;8.89;100.00
13732;BME280;6937;56.096;12.664;2023-03-22T14:00:37;99537.28;;;8.92;100.00
13732;BME280;6937;56.096;12.664;2023-03-22T14:03:14;99526.47;;;8.94;100.00
13732;BME280;6937;56.096;12.664;2023-03-22T14:05:41;99527.06;;;8.97;100.00